Time;durP1;ratioP1;P1;durP2;ratioP2;P2;SDS_P1;SDS_P2;PMS_P1;PMS_P2;Temp;Humidity;BMP_temperature;BMP_pressure;BME280_temperature;BME280_humidity;BME280_pressure;Samples;Min_cycle;Max_cycle;Signal;HPM_P1;HPM_P2
2023/02/01 00:01:40;;;;;;;0.20;0.20;;;;;;;;;;5072594;28;20604;-71
2023/02/01 00:04:07;;;;;;;0.20;0.20;;;;;;;;;;5083233;28;20209;-71
2023/02/01 00:06:33;;;;;;;0.20;0.20;;;;;;;;;;5072407;28;20444;-70
2023/02/01 00:09:00;;;;;;;0.20;0.20;;;;;;;;;;5083387;28;20245;-70
2023/02/01 00:11:28;;;;;;;0.20;0.20;;;;;;;;;;5072518;28;20269;-70
2023/02/01 00:13:54;;;;;;;0.20;0.20;;;;;;;;;;5083307;28;20253;-70
2023/02/01 00:16:21;;;;;;;0.20;0.20;;;;;;;;;;5072401;28;20257;-70
2023/02/01 00:18:48;;;;;;;0.20;0.20;;;;;;;;;;5083148;28;20404;-69
2023/02/01 00:21:16;;;;;;;0.20;0.20;;;;;;;;;;5072341;28;20254;-70
2023/02/01 00:23:42;;;;;;;0.20;0.20;;;;;;;;;;5083042;28;20244;-70
2023/02/01 00:26:15;;;;;;;0.20;0.20;;;;;;;;;;5072316;28;20295;-69
2023/02/01 00:28:43;;;;;;;0.20;0.20;;;;;;;;;;5082893;28;20225;-70
2023/02/01 00:31:09;;;;;;;0.20;0.20;;;;;;;;;;5072034;28;20245;-70
2023/02/01 00:33:35;;;;;;;0.20;0.20;;;;;;;;;;5082548;28;20221;-69
2023/02/01 00:36:03;;;;;;;0.23;0.23;;;;;;;;;;5072420;28;20261;-69
2023/02/01 00:38:30;;;;;;;0.20;0.20;;;;;;;;;;5082855;28;20213;-69
2023/02/01 00:41:03;;;;;;;0.20;0.20;;;;;;;;;;5076385;28;20295;-69
2023/02/01 00:43:29;;;;;;;0.20;0.20;;;;;;;;;;5086401;28;20199;-69
2023/02/01 00:45:57;;;;;;;0.20;0.20;;;;;;;;;;5075928;28;20309;-69
2023/02/01 00:48:23;;;;;;;0.20;0.20;;;;;;;;;;5086551;28;20466;-70
2023/02/01 00:50:49;;;;;;;0.30;0.30;;;;;;;;;;5075995;28;20246;-68
2023/02/01 00:53:16;;;;;;;0.20;0.20;;;;;;;;;;5086526;28;20423;-69
2023/02/01 00:55:45;;;;;;;0.20;0.20;;;;;;;;;;5075975;28;20246;-69
2023/02/01 00:58:11;;;;;;;0.20;0.20;;;;;;;;;;5086255;28;20398;-69
2023/02/01 01:00:38;;;;;;;0.20;0.20;;;;;;;;;;5076083;28;20317;-69
2023/02/01 01:03:17;;;;;;;0.20;0.20;;;;;;;;;;5086087;28;20237;-70
2023/02/01 01:05:43;;;;;;;0.20;0.20;;;;;;;;;;5075669;28;20241;-70
2023/02/01 01:08:10;;;;;;;0.20;0.20;;;;;;;;;;5085805;28;20280;-70
2023/02/01 01:10:36;;;;;;;0.20;0.20;;;;;;;;;;5075883;28;20317;-70
2023/02/01 01:13:02;;;;;;;0.20;0.20;;;;;;;;;;5085651;28;20247;-70
2023/02/01 01:15:29;;;;;;;0.20;0.20;;;;;;;;;;5075803;28;20565;-70
2023/02/01 01:17:55;;;;;;;0.20;0.20;;;;;;;;;;5085643;28;20270;-70
2023/02/01 01:20:23;;;;;;;0.67;0.67;;;;;;;;;;5075778;28;20237;-69
2023/02/01 01:22:49;;;;;;;0.20;0.20;;;;;;;;;;5085212;28;20279;-70
2023/02/01 01:25:16;;;;;;;0.20;0.20;;;;;;;;;;5076129;28;20206;-70
2023/02/01 01:27:42;;;;;;;0.20;0.20;;;;;;;;;;5085216;28;20301;-70
2023/02/01 01:30:09;;;;;;;0.20;0.20;;;;;;;;;;5075703;28;20273;-71
2023/02/01 01:32:35;;;;;;;0.20;0.20;;;;;;;;;;5084707;28;20568;-70
2023/02/01 01:35:02;;;;;;;0.20;0.20;;;;;;;;;;5086087;28;20274;-70
2023/02/01 01:37:30;;;;;;;0.20;0.20;;;;;;;;;;5074702;28;20242;-70
2023/02/01 01:39:56;;;;;;;0.20;0.20;;;;;;;;;;5085939;28;20206;-69
2023/02/01 01:42:22;;;;;;;0.20;0.20;;;;;;;;;;5074678;28;20300;-70
2023/02/01 01:44:59;;;;;;;0.27;0.27;;;;;;;;;;5085819;28;20238;-70
2023/02/01 01:47:28;;;;;;;0.20;0.20;;;;;;;;;;5074526;28;20583;-70
2023/02/01 01:49:54;;;;;;;0.30;0.30;;;;;;;;;;5085448;28;20205;-70
2023/02/01 01:52:21;;;;;;;0.20;0.20;;;;;;;;;;5073752;28;20306;-70
2023/02/01 01:54:52;;;;;;;0.20;0.20;;;;;;;;;;5085687;28;20276;-70
2023/02/01 01:57:21;;;;;;;0.30;0.30;;;;;;;;;;5074411;28;20287;-70
2023/02/01 01:59:50;;;;;;;0.20;0.20;;;;;;;;;;5085914;28;20527;-70
2023/02/01 02:02:17;;;;;;;0.20;0.20;;;;;;;;;;5074416;28;20236;-70
2023/02/01 02:04:45;;;;;;;0.20;0.20;;;;;;;;;;5085687;28;20205;-70
2023/02/01 02:07:16;;;;;;;0.20;0.20;;;;;;;;;;5074152;28;20274;-70
2023/02/01 02:09:43;;;;;;;0.20;0.20;;;;;;;;;;5085895;28;20232;-69
2023/02/01 02:12:11;;;;;;;0.20;0.20;;;;;;;;;;5074103;28;20238;-70
2023/02/01 02:14:37;;;;;;;0.47;0.47;;;;;;;;;;5085506;28;20280;-70
2023/02/01 02:17:12;;;;;;;0.20;0.20;;;;;;;;;;5074015;28;20302;-69
2023/02/01 02:19:56;;;;;;;0.20;0.20;;;;;;;;;;5085550;28;20195;-70
2023/02/01 02:22:36;;;;;;;0.20;0.20;;;;;;;;;;5073946;28;20303;-70
2023/02/01 02:25:14;;;;;;;0.20;0.20;;;;;;;;;;5085370;28;20479;-70
2023/02/01 02:27:45;;;;;;;0.20;0.20;;;;;;;;;;5079966;28;20297;-69
2023/02/01 02:30:29;;;;;;;0.20;0.20;;;;;;;;;;5074529;28;20239;-69
2023/02/01 02:33:16;;;;;;;0.20;0.20;;;;;;;;;;5084009;28;20249;-69
2023/02/01 02:35:47;;;;;;;0.20;0.20;;;;;;;;;;5048416;28;20254;-68
2023/02/01 02:38:18;;;;;;;0.20;0.20;;;;;;;;;;5083895;28;20204;-69
2023/02/01 02:40:48;;;;;;;0.20;0.20;;;;;;;;;;5074059;28;20252;-69
2023/02/01 02:48:53;;;;;;;0.20;0.20;;;;;;;;;;5084141;28;20212;-70
2023/02/01 03:05:07;;;;;;;0.23;0.23;;;;;;;;;;5084341;28;20193;-69
2023/02/01 03:07:52;;;;;;;0.20;0.20;;;;;;;;;;5072871;28;20430;-68
2023/02/01 03:10:25;;;;;;;0.20;0.20;;;;;;;;;;5073735;28;20268;-70
2023/02/01 03:12:56;;;;;;;0.20;0.20;;;;;;;;;;5083432;28;20524;-70
2023/02/01 03:15:26;;;;;;;0.20;0.20;;;;;;;;;;5073800;28;20373;-69
2023/02/01 03:17:53;;;;;;;0.40;0.40;;;;;;;;;;5083083;28;20248;-69
2023/02/01 03:20:21;;;;;;;0.20;0.20;;;;;;;;;;5073801;28;20296;-69
2023/02/01 03:22:49;;;;;;;0.20;0.20;;;;;;;;;;5083221;28;20306;-69
2023/02/01 03:25:19;;;;;;;0.20;0.20;;;;;;;;;;5073645;28;20453;-69
2023/02/01 03:27:50;;;;;;;0.20;0.20;;;;;;;;;;5083063;28;20587;-69
2023/02/01 03:30:18;;;;;;;0.30;0.30;;;;;;;;;;5073714;28;20200;-69
2023/02/01 03:33:00;;;;;;;0.20;0.20;;;;;;;;;;5082683;28;20215;-69
2023/02/01 03:35:28;;;;;;;0.27;0.27;;;;;;;;;;5073203;28;20223;-70
2023/02/01 03:37:57;;;;;;;0.20;0.20;;;;;;;;;;5083191;28;20272;-69
2023/02/01 03:40:24;;;;;;;0.27;0.27;;;;;;;;;;5073510;28;20277;-69
2023/02/01 03:42:55;;;;;;;0.20;0.20;;;;;;;;;;5082915;28;20235;-70
2023/02/01 03:45:25;;;;;;;0.20;0.20;;;;;;;;;;5073522;28;20268;-69
2023/02/01 03:47:54;;;;;;;0.30;0.30;;;;;;;;;;5082834;28;20255;-70
2023/02/01 03:50:22;;;;;;;0.20;0.20;;;;;;;;;;5073165;28;20347;-70
2023/02/01 03:52:52;;;;;;;0.20;0.20;;;;;;;;;;5082452;28;20205;-70
2023/02/01 03:55:22;;;;;;;0.20;0.20;;;;;;;;;;5073088;28;20277;-70
2023/02/01 03:57:52;;;;;;;0.20;0.20;;;;;;;;;;5082744;28;20202;-70
2023/02/01 04:00:22;;;;;;;0.20;0.20;;;;;;;;;;5073329;28;20199;-69
2023/02/01 04:02:48;;;;;;;0.20;0.20;;;;;;;;;;5082707;28;20201;-69
2023/02/01 04:05:15;;;;;;;0.20;0.20;;;;;;;;;;5073453;28;20273;-69
2023/02/01 04:07:41;;;;;;;0.20;0.20;;;;;;;;;;5082612;28;20252;-69
2023/02/01 04:10:08;;;;;;;0.30;0.30;;;;;;;;;;5083667;28;20244;-69
2023/02/01 04:12:34;;;;;;;0.30;0.30;;;;;;;;;;5072092;28;20241;-69
2023/02/01 04:15:01;;;;;;;0.20;0.20;;;;;;;;;;5086153;28;20281;-69
2023/02/01 04:17:28;;;;;;;0.30;0.30;;;;;;;;;;5076133;28;20237;-69
2023/02/01 04:19:55;;;;;;;0.20;0.20;;;;;;;;;;5087463;28;20236;-69
2023/02/01 04:22:21;;;;;;;0.20;0.20;;;;;;;;;;5076298;28;20317;-69
2023/02/01 04:24:47;;;;;;;0.20;0.20;;;;;;;;;;5087747;28;20313;-69
2023/02/01 04:27:14;;;;;;;0.20;0.20;;;;;;;;;;5076031;28;20301;-69
2023/02/01 04:29:40;;;;;;;0.20;0.20;;;;;;;;;;5087497;28;20206;-69
2023/02/01 04:32:07;;;;;;;0.40;0.33;;;;;;;;;;5075630;28;20245;-69
2023/02/01 04:34:34;;;;;;;0.20;0.20;;;;;;;;;;5087154;28;20213;-70
2023/02/01 04:37:02;;;;;;;0.20;0.20;;;;;;;;;;5075992;28;20444;-69
2023/02/01 04:39:28;;;;;;;0.20;0.20;;;;;;;;;;5087214;28;20211;-69
2023/02/01 04:41:55;;;;;;;0.20;0.20;;;;;;;;;;5076083;28;20352;-69
2023/02/01 04:44:21;;;;;;;0.20;0.20;;;;;;;;;;5086885;28;20239;-69
2023/02/01 04:46:48;;;;;;;0.20;0.20;;;;;;;;;;5075799;28;20390;-69
2023/02/01 04:49:14;;;;;;;0.20;0.20;;;;;;;;;;5086675;28;20255;-69
2023/02/01 04:51:42;;;;;;;0.20;0.20;;;;;;;;;;5075910;28;20261;-69
2023/02/01 04:54:11;;;;;;;0.20;0.20;;;;;;;;;;5086720;28;20253;-70
2023/02/01 04:56:37;;;;;;;0.20;0.20;;;;;;;;;;5075781;28;20248;-70
2023/02/01 04:59:04;;;;;;;0.87;0.87;;;;;;;;;;5086643;28;20206;-69
2023/02/01 05:01:30;;;;;;;0.23;0.23;;;;;;;;;;5075619;28;20257;-70
2023/02/01 05:03:57;;;;;;;0.20;0.20;;;;;;;;;;5086294;28;20558;-69
2023/02/01 05:06:23;;;;;;;0.20;0.20;;;;;;;;;;5075454;28;20308;-69
2023/02/01 05:08:51;;;;;;;0.20;0.20;;;;;;;;;;5086015;28;20230;-70
2023/02/01 05:13:57;;;;;;;0.20;0.20;;;;;;;;;;5085442;28;20214;-69
2023/02/01 05:16:24;;;;;;;0.53;0.53;;;;;;;;;;5075437;28;20313;-69
2023/02/01 05:18:50;;;;;;;0.20;0.20;;;;;;;;;;5086290;28;20225;-70
2023/02/01 05:21:17;;;;;;;0.10;0.10;;;;;;;;;;5075336;28;20246;-69
2023/02/01 05:26:28;;;;;;;0.20;0.20;;;;;;;;;;5068010;28;20254;-70
2023/02/01 05:28:54;;;;;;;0.83;0.83;;;;;;;;;;5085942;28;20469;-70
2023/02/01 05:31:20;;;;;;;0.10;0.10;;;;;;;;;;5075107;28;20239;-69
2023/02/01 05:33:47;;;;;;;0.30;0.30;;;;;;;;;;5085810;28;20207;-70
2023/02/01 05:36:14;;;;;;;0.33;0.33;;;;;;;;;;5075183;28;20304;-70
2023/02/01 05:38:40;;;;;;;0.20;0.20;;;;;;;;;;5085746;28;20273;-70
2023/02/01 05:41:07;;;;;;;0.20;0.20;;;;;;;;;;5075131;28;20250;-70
2023/02/01 05:43:35;;;;;;;1.07;1.07;;;;;;;;;;5085465;28;20277;-70
2023/02/01 05:46:01;;;;;;;0.20;0.20;;;;;;;;;;5075124;28;20261;-70
2023/02/01 05:48:27;;;;;;;0.20;0.20;;;;;;;;;;5085166;28;20290;-70
2023/02/01 05:50:54;;;;;;;0.20;0.20;;;;;;;;;;5074993;28;20305;-70
2023/02/01 05:53:21;;;;;;;0.20;0.20;;;;;;;;;;5085325;28;20272;-70
2023/02/01 05:55:47;;;;;;;0.20;0.20;;;;;;;;;;5075104;28;20510;-69
2023/02/01 05:58:13;;;;;;;0.20;0.20;;;;;;;;;;5085234;28;20202;-70
2023/02/01 06:00:41;;;;;;;0.20;0.20;;;;;;;;;;5075049;28;20265;-70
2023/02/01 06:03:08;;;;;;;0.20;0.20;;;;;;;;;;5084784;28;20203;-70
2023/02/01 06:05:34;;;;;;;13.23;1.33;;;;;;;;;;5075040;28;20523;-70
2023/02/01 06:08:00;;;;;;;0.20;0.20;;;;;;;;;;5084867;28;20221;-69
2023/02/01 06:10:27;;;;;;;0.20;0.20;;;;;;;;;;5075194;28;20259;-70
2023/02/01 06:12:53;;;;;;;0.33;0.33;;;;;;;;;;5084698;28;20258;-70
2023/02/01 06:15:20;;;;;;;0.20;0.20;;;;;;;;;;5074796;28;20212;-70
2023/02/01 06:17:47;;;;;;;0.30;0.30;;;;;;;;;;5084558;28;20241;-69
2023/02/01 06:20:15;;;;;;;0.37;0.37;;;;;;;;;;5074583;28;20252;-70
2023/02/01 06:22:42;;;;;;;0.20;0.20;;;;;;;;;;5084411;28;20210;-69
2023/02/01 06:25:09;;;;;;;0.27;0.27;;;;;;;;;;5075038;28;20206;-70
2023/02/01 06:27:36;;;;;;;0.20;0.20;;;;;;;;;;5084129;28;20233;-69
2023/02/01 06:30:02;;;;;;;0.20;0.20;;;;;;;;;;5085169;28;20204;-69
2023/02/01 06:32:29;;;;;;;0.20;0.20;;;;;;;;;;5073418;28;20265;-70
2023/02/01 06:34:57;;;;;;;0.20;0.20;;;;;;;;;;5084835;28;20229;-69
2023/02/01 06:37:24;;;;;;;0.20;0.20;;;;;;;;;;5072939;28;20249;-69
2023/02/01 06:39:51;;;;;;;0.23;0.23;;;;;;;;;;5085085;28;20501;-69
2023/02/01 06:42:17;;;;;;;1.23;1.23;;;;;;;;;;5073511;28;20313;-69
2023/02/01 06:44:43;;;;;;;0.50;0.50;;;;;;;;;;5084975;28;20204;-69
2023/02/01 06:47:10;;;;;;;1.37;1.27;;;;;;;;;;5073151;28;20444;-69
2023/02/01 06:49:36;;;;;;;0.27;0.27;;;;;;;;;;5084546;28;20205;-69
2023/02/01 06:52:04;;;;;;;0.20;0.20;;;;;;;;;;5073313;28;20497;-68
2023/02/01 06:54:33;;;;;;;0.20;0.20;;;;;;;;;;5084514;28;20206;-68
2023/02/01 06:56:59;;;;;;;0.20;0.20;;;;;;;;;;5073087;28;20291;-69
2023/02/01 06:59:26;;;;;;;0.40;0.40;;;;;;;;;;5084654;28;20209;-69
2023/02/01 07:01:52;;;;;;;0.40;0.40;;;;;;;;;;5073136;28;20246;-69
2023/02/01 07:04:24;;;;;;;0.40;0.40;;;;;;;;;;5084476;28;20425;-69
2023/02/01 07:06:50;;;;;;;0.20;0.20;;;;;;;;;;5073068;28;20249;-69
2023/02/01 07:09:18;;;;;;;0.33;0.33;;;;;;;;;;5084262;28;20301;-70
2023/02/01 07:11:44;;;;;;;0.77;0.77;;;;;;;;;;5073000;28;20321;-70
2023/02/01 07:14:11;;;;;;;0.20;0.20;;;;;;;;;;5084011;28;20212;-69
2023/02/01 07:16:37;;;;;;;0.20;0.20;;;;;;;;;;5073036;28;20441;-69
2023/02/01 07:19:04;;;;;;;0.30;0.30;;;;;;;;;;5083719;28;20245;-69
2023/02/01 07:21:30;;;;;;;0.30;0.30;;;;;;;;;;5072884;28;20252;-70
2023/02/01 07:23:57;;;;;;;0.30;0.30;;;;;;;;;;5083930;28;20518;-69
2023/02/01 07:26:24;;;;;;;0.23;0.23;;;;;;;;;;5072980;28;20497;-69
2023/02/01 07:28:51;;;;;;;2.90;1.20;;;;;;;;;;5083770;28;20293;-69
2023/02/01 07:31:20;;;;;;;0.20;0.20;;;;;;;;;;5072888;28;20482;-69
2023/02/01 07:33:47;;;;;;;0.20;0.20;;;;;;;;;;5083302;28;20212;-69
2023/02/01 07:36:14;;;;;;;23.70;1.33;;;;;;;;;;5072912;28;20356;-69
2023/02/01 07:38:41;;;;;;;0.30;0.30;;;;;;;;;;5083592;28;20206;-69
2023/02/01 07:41:08;;;;;;;0.20;0.20;;;;;;;;;;5072947;28;20236;-70
2023/02/01 07:43:39;;;;;;;0.20;0.20;;;;;;;;;;5083133;28;20248;-69
2023/02/01 07:46:06;;;;;;;0.30;0.30;;;;;;;;;;5072891;28;20294;-70
2023/02/01 07:48:33;;;;;;;0.20;0.20;;;;;;;;;;5082346;28;20260;-70
2023/02/01 07:51:00;;;;;;;0.20;0.20;;;;;;;;;;5073076;28;20483;-72
2023/02/01 07:53:27;;;;;;;0.20;0.20;;;;;;;;;;5083476;28;20233;-74
2023/02/01 07:55:55;;;;;;;0.20;0.20;;;;;;;;;;5073199;28;20242;-72
2023/02/01 07:58:22;;;;;;;0.20;0.20;;;;;;;;;;5083133;28;20206;-73
2023/02/01 08:03:34;;;;;;;0.20;0.20;;;;;;;;;;5083275;28;20232;-72
2023/02/01 08:06:00;;;;;;;0.20;0.20;;;;;;;;;;5072684;28;20246;-72
2023/02/01 08:08:27;;;;;;;0.23;0.23;;;;;;;;;;5082887;28;20433;-72
2023/02/01 08:10:57;;;;;;;0.20;0.20;;;;;;;;;;5072699;28;20242;-71
2023/02/01 08:13:24;;;;;;;0.20;0.20;;;;;;;;;;5082827;28;20209;-72
2023/02/01 08:15:52;;;;;;;0.20;0.20;;;;;;;;;;5072619;28;20246;-72
2023/02/01 08:18:18;;;;;;;0.40;0.40;;;;;;;;;;5082780;28;20241;-70
2023/02/01 08:20:47;;;;;;;0.20;0.20;;;;;;;;;;5072694;28;20573;-70
2023/02/01 08:23:14;;;;;;;0.20;0.20;;;;;;;;;;5082746;28;20231;-71
2023/02/01 08:25:40;;;;;;;0.20;0.20;;;;;;;;;;5072589;28;20309;-69
2023/02/01 08:28:07;;;;;;;0.30;0.30;;;;;;;;;;5082614;28;20454;-69
2023/02/01 08:30:33;;;;;;;0.20;0.20;;;;;;;;;;5072320;28;20248;-69
2023/02/01 08:33:01;;;;;;;0.20;0.20;;;;;;;;;;5082891;28;20195;-69
2023/02/01 08:35:28;;;;;;;0.20;0.20;;;;;;;;;;5072713;28;20235;-69
2023/02/01 08:37:54;;;;;;;0.30;0.30;;;;;;;;;;5082667;28;20447;-68
2023/02/01 08:40:23;;;;;;;0.20;0.20;;;;;;;;;;5073004;28;20207;-68
2023/02/01 08:42:52;;;;;;;0.20;0.20;;;;;;;;;;5082624;28;20214;-69
2023/02/01 08:45:19;;;;;;;0.20;0.20;;;;;;;;;;5072735;28;20464;-69
2023/02/01 08:47:46;;;;;;;0.20;0.20;;;;;;;;;;5082248;28;20273;-69
2023/02/01 08:50:14;;;;;;;0.20;0.20;;;;;;;;;;5072690;28;20229;-69
2023/02/01 08:52:41;;;;;;;0.20;0.20;;;;;;;;;;5082419;28;20217;-69
2023/02/01 08:55:07;;;;;;;0.20;0.20;;;;;;;;;;5080202;28;20459;-70
2023/02/01 08:57:34;;;;;;;0.20;0.20;;;;;;;;;;5082120;28;20462;-69
2023/02/01 09:00:00;;;;;;;0.20;0.20;;;;;;;;;;5084344;28;20269;-67
2023/02/01 09:02:27;;;;;;;0.20;0.20;;;;;;;;;;5075294;28;20242;-65
2023/02/01 09:04:53;;;;;;;0.30;0.30;;;;;;;;;;5087064;28;20281;-71
2023/02/01 09:07:21;;;;;;;0.20;0.20;;;;;;;;;;5075320;28;20239;-68
2023/02/01 09:09:47;;;;;;;0.20;0.20;;;;;;;;;;5086905;28;20225;-67
2023/02/01 09:12:14;;;;;;;0.20;0.20;;;;;;;;;;5075387;28;20243;-72
2023/02/01 09:14:40;;;;;;;0.30;0.30;;;;;;;;;;5086590;28;20460;-71
2023/02/01 09:17:06;;;;;;;0.20;0.20;;;;;;;;;;5075337;28;20503;-74
2023/02/01 09:19:33;;;;;;;0.20;0.20;;;;;;;;;;5086850;28;20224;-73
2023/02/01 09:21:59;;;;;;;0.20;0.20;;;;;;;;;;5075255;28;20432;-72
2023/02/01 09:24:27;;;;;;;0.30;0.30;;;;;;;;;;5086479;28;20534;-72
2023/02/01 09:26:54;;;;;;;0.20;0.20;;;;;;;;;;5075122;28;20290;-72
2023/02/01 09:29:20;;;;;;;0.20;0.20;;;;;;;;;;5086521;28;20471;-72
2023/02/01 09:31:46;;;;;;;0.20;0.20;;;;;;;;;;5075005;28;20265;-72
2023/02/01 09:34:13;;;;;;;0.20;0.20;;;;;;;;;;5086300;28;20506;-72
2023/02/01 09:36:39;;;;;;;0.20;0.20;;;;;;;;;;5075239;28;20305;-72
2023/02/01 09:39:06;;;;;;;0.20;0.20;;;;;;;;;;5086256;28;20465;-72
2023/02/01 09:41:38;;;;;;;0.20;0.20;;;;;;;;;;5075131;28;20239;-72
2023/02/01 09:44:09;;;;;;;0.20;0.20;;;;;;;;;;5085760;28;20354;-73
2023/02/01 09:46:35;;;;;;;0.23;0.23;;;;;;;;;;5075078;28;20242;-73
2023/02/01 09:49:04;;;;;;;0.20;0.20;;;;;;;;;;5085932;28;20301;-73
2023/02/01 09:51:34;;;;;;;0.20;0.20;;;;;;;;;;5074938;28;20246;-72
2023/02/01 09:54:04;;;;;;;0.20;0.20;;;;;;;;;;5085890;28;20247;-74
2023/02/01 09:56:37;;;;;;;0.20;0.20;;;;;;;;;;5074964;28;20437;-73
2023/02/01 09:59:10;;;;;;;0.20;0.20;;;;;;;;;;5085793;28;20281;-73
2023/02/01 10:01:37;;;;;;;0.20;0.20;;;;;;;;;;5074355;28;20301;-72
2023/02/01 10:04:05;;;;;;;0.20;0.20;;;;;;;;;;5085617;28;20272;-73
2023/02/01 10:06:36;;;;;;;0.20;0.20;;;;;;;;;;5074572;28;20246;-73
2023/02/01 10:09:10;;;;;;;0.20;0.20;;;;;;;;;;5085087;28;20253;-74
2023/02/01 10:11:48;;;;;;;0.20;0.20;;;;;;;;;;5073431;28;20239;-72
2023/02/01 10:14:21;;;;;;;0.20;0.20;;;;;;;;;;5085520;28;20198;-72
2023/02/01 10:16:51;;;;;;;0.93;0.93;;;;;;;;;;5074229;28;20554;-73
2023/02/01 10:19:27;;;;;;;0.20;0.20;;;;;;;;;;5085013;28;20203;-71
2023/02/01 10:21:55;;;;;;;0.20;0.20;;;;;;;;;;5074195;28;20238;-72
2023/02/01 10:24:29;;;;;;;0.20;0.20;;;;;;;;;;5085137;28;20274;-73
2023/02/01 10:26:58;;;;;;;0.43;0.43;;;;;;;;;;5073926;28;20242;-72
2023/02/01 10:29:29;;;;;;;0.20;0.20;;;;;;;;;;5085121;28;20427;-71
2023/02/01 10:31:55;;;;;;;0.20;0.20;;;;;;;;;;5073519;28;20242;-72
2023/02/01 10:34:23;;;;;;;0.20;0.20;;;;;;;;;;5084771;28;20199;-71
2023/02/01 10:36:56;;;;;;;0.20;0.20;;;;;;;;;;5073696;28;20416;-73
2023/02/01 10:39:23;;;;;;;0.20;0.20;;;;;;;;;;5084769;28;20267;-71
2023/02/01 10:41:50;;;;;;;0.20;0.20;;;;;;;;;;5073666;28;20247;-71
2023/02/01 10:44:17;;;;;;;0.20;0.20;;;;;;;;;;5084466;28;20235;-71
2023/02/01 10:46:45;;;;;;;0.20;0.20;;;;;;;;;;5073547;28;20253;-71
2023/02/01 10:49:14;;;;;;;0.20;0.20;;;;;;;;;;5084324;28;20474;-73
2023/02/01 10:51:44;;;;;;;0.20;0.20;;;;;;;;;;5073344;28;20240;-72
2023/02/01 10:54:14;;;;;;;0.20;0.20;;;;;;;;;;5084691;28;20205;-70
2023/02/01 10:56:40;;;;;;;0.20;0.20;;;;;;;;;;5073284;28;20311;-71
2023/02/01 10:59:12;;;;;;;0.20;0.20;;;;;;;;;;5084494;28;20400;-71
2023/02/01 11:01:40;;;;;;;0.20;0.20;;;;;;;;;;5073243;28;20315;-77
2023/02/01 11:04:08;;;;;;;0.20;0.20;;;;;;;;;;5084596;28;20270;-76
2023/02/01 11:06:36;;;;;;;0.17;0.17;;;;;;;;;;5073408;28;20306;-73
2023/02/01 11:09:12;;;;;;;0.20;0.20;;;;;;;;;;5084044;28;20228;-77
2023/02/01 11:11:54;;;;;;;0.20;0.20;;;;;;;;;;5073151;28;20239;-76
2023/02/01 11:14:21;;;;;;;0.10;0.10;;;;;;;;;;5084578;28;20261;-78
2023/02/01 11:16:48;;;;;;;0.17;0.17;;;;;;;;;;5073158;28;20322;-78
2023/02/01 11:19:17;;;;;;;0.20;0.20;;;;;;;;;;5084203;28;20266;-76
2023/02/01 11:21:44;;;;;;;0.10;0.10;;;;;;;;;;5072838;28;20255;-78
2023/02/01 11:24:18;;;;;;;0.20;0.20;;;;;;;;;;5084079;28;20211;-77
2023/02/01 11:26:45;;;;;;;0.10;0.10;;;;;;;;;;5073042;28;20298;-77
2023/02/01 11:29:13;;;;;;;0.20;0.20;;;;;;;;;;5083967;28;20290;-79
2023/02/01 11:31:40;;;;;;;0.10;0.10;;;;;;;;;;5072701;28;20315;-69
2023/02/01 11:34:09;;;;;;;0.20;0.20;;;;;;;;;;5083622;28;20205;-66
2023/02/01 11:36:37;;;;;;;0.20;0.20;;;;;;;;;;5072878;28;20258;-71
2023/02/01 11:39:28;;;;;;;0.10;0.10;;;;;;;;;;5083714;28;20259;-72
2023/02/01 11:41:59;;;;;;;0.10;0.10;;;;;;;;;;5057173;28;20242;-69
2023/02/01 11:44:30;;;;;;;0.10;0.10;;;;;;;;;;5083929;28;20270;-70
2023/02/01 11:46:56;;;;;;;0.20;0.20;;;;;;;;;;5072260;28;20574;-70
2023/02/01 11:49:23;;;;;;;0.10;0.10;;;;;;;;;;5083812;28;20250;-70
2023/02/01 11:52:00;;;;;;;0.10;0.10;;;;;;;;;;5072480;28;20246;-70
2023/02/01 11:54:43;;;;;;;0.10;0.10;;;;;;;;;;5083863;28;20358;-70
2023/02/01 11:57:17;;;;;;;0.10;0.10;;;;;;;;;;5072319;28;20258;-69
2023/02/01 11:59:54;;;;;;;0.10;0.10;;;;;;;;;;5083841;28;20394;-70
2023/02/01 12:02:46;;;;;;;0.17;0.17;;;;;;;;;;5072297;28;20239;-70
2023/02/01 12:05:17;;;;;;;0.17;0.17;;;;;;;;;;5073298;28;20213;-70
2023/02/01 12:07:51;;;;;;;0.20;0.20;;;;;;;;;;5082607;28;20211;-70
2023/02/01 12:10:23;;;;;;;0.10;0.10;;;;;;;;;;5072891;28;20284;-70
2023/02/01 12:12:55;;;;;;;0.20;0.20;;;;;;;;;;5082729;28;20349;-70
2023/02/01 12:15:33;;;;;;;0.10;0.10;;;;;;;;;;5073112;28;20194;-70
2023/02/01 12:18:11;;;;;;;0.10;0.10;;;;;;;;;;5082824;28;20267;-70
2023/02/01 12:20:48;;;;;;;0.20;0.20;;;;;;;;;;5072624;28;20247;-70
2023/02/01 12:23:21;;;;;;;0.10;0.10;;;;;;;;;;5082818;28;20217;-70
2023/02/01 12:25:58;;;;;;;0.30;0.30;;;;;;;;;;5072384;28;20310;-70
2023/02/01 12:28:32;;;;;;;0.10;0.10;;;;;;;;;;5083020;28;20261;-70
2023/02/01 12:31:13;;;;;;;0.20;0.20;;;;;;;;;;5072334;28;20478;-69
2023/02/01 12:33:44;;;;;;;0.20;0.20;;;;;;;;;;5082931;28;20380;-71
2023/02/01 12:36:14;;;;;;;0.13;0.13;;;;;;;;;;5075351;28;20515;-70
2023/02/01 12:38:47;;;;;;;0.10;0.10;;;;;;;;;;5086944;28;20204;-70
2023/02/01 12:41:20;;;;;;;0.10;0.10;;;;;;;;;;5076262;28;20305;-69
2023/02/01 12:43:48;;;;;;;0.10;0.10;;;;;;;;;;5087489;28;20446;-70
2023/02/01 12:46:17;;;;;;;0.10;0.10;;;;;;;;;;5076256;28;20259;-70
2023/02/01 12:48:48;;;;;;;0.20;0.20;;;;;;;;;;5086729;28;20251;-70
2023/02/01 12:51:16;;;;;;;0.10;0.10;;;;;;;;;;5075814;28;20253;-70
2023/02/01 12:53:47;;;;;;;0.20;0.20;;;;;;;;;;5086356;28;20278;-69
2023/02/01 12:56:16;;;;;;;0.10;0.10;;;;;;;;;;5075996;28;20561;-71
2023/02/01 12:58:44;;;;;;;0.20;0.20;;;;;;;;;;5086544;28;20232;-71
2023/02/01 13:01:13;;;;;;;0.10;0.10;;;;;;;;;;5075889;28;20306;-71
2023/02/01 13:03:42;;;;;;;0.10;0.10;;;;;;;;;;5086121;28;20272;-71
2023/02/01 13:06:10;;;;;;;0.10;0.10;;;;;;;;;;5075925;28;20242;-71
2023/02/01 13:08:40;;;;;;;0.10;0.10;;;;;;;;;;5086269;28;20212;-71
2023/02/01 13:11:13;;;;;;;0.10;0.10;;;;;;;;;;5075543;28;20287;-70
2023/02/01 13:13:43;;;;;;;0.20;0.20;;;;;;;;;;5086326;28;20205;-70
2023/02/01 13:16:14;;;;;;;0.20;0.20;;;;;;;;;;5075647;28;20255;-71
2023/02/01 13:18:43;;;;;;;0.20;0.20;;;;;;;;;;5086067;28;20385;-70
2023/02/01 13:21:13;;;;;;;0.93;0.93;;;;;;;;;;5075541;28;20262;-71
2023/02/01 13:23:40;;;;;;;0.20;0.20;;;;;;;;;;5086137;28;20445;-71
2023/02/01 13:26:07;;;;;;;0.10;0.10;;;;;;;;;;5075615;28;20328;-71
2023/02/01 13:28:40;;;;;;;0.10;0.10;;;;;;;;;;5085591;28;20219;-71
2023/02/01 13:31:21;;;;;;;0.10;0.10;;;;;;;;;;5075184;28;20622;-71
2023/02/01 13:33:59;;;;;;;0.20;0.20;;;;;;;;;;5085923;28;20484;-71
2023/02/01 13:36:41;;;;;;;0.20;0.20;;;;;;;;;;5075044;28;20333;-71
2023/02/01 13:39:26;;;;;;;0.10;0.10;;;;;;;;;;5083846;28;20244;-71
2023/02/01 13:41:53;;;;;;;0.13;0.13;;;;;;;;;;5074920;28;20263;-71
2023/02/01 13:44:25;;;;;;;0.20;0.20;;;;;;;;;;5085720;28;20205;-71
2023/02/01 13:46:54;;;;;;;0.20;0.20;;;;;;;;;;5073379;28;20244;-71
2023/02/01 13:49:22;;;;;;;0.30;0.30;;;;;;;;;;5085695;28;20480;-71
2023/02/01 13:51:50;;;;;;;0.20;0.20;;;;;;;;;;5074611;28;20253;-71
2023/02/01 13:54:27;;;;;;;0.20;0.20;;;;;;;;;;5085890;28;20239;-71
2023/02/01 13:56:54;;;;;;;0.83;0.83;;;;;;;;;;5074569;28;20306;-71
2023/02/01 13:59:39;;;;;;;0.30;0.30;;;;;;;;;;5085395;28;20213;-69
2023/02/01 14:02:20;;;;;;;0.37;0.37;;;;;;;;;;5074357;28;20300;-70
2023/02/01 14:04:49;;;;;;;0.67;0.67;;;;;;;;;;5084699;28;20266;-70
2023/02/01 14:07:22;;;;;;;0.20;0.20;;;;;;;;;;5074274;28;20260;-72
2023/02/01 14:09:49;;;;;;;0.10;0.10;;;;;;;;;;5085629;28;20262;-70
2023/02/01 14:12:34;;;;;;;1.23;1.23;;;;;;;;;;5074186;28;20304;-70
2023/02/01 14:15:17;;;;;;;0.17;0.17;;;;;;;;;;5085539;28;20251;-70
2023/02/01 14:17:44;;;;;;;0.20;0.20;;;;;;;;;;5084858;28;20209;-70
2023/02/01 14:20:28;;;;;;;0.20;0.20;;;;;;;;;;5075194;28;20555;-70
2023/02/01 14:23:02;;;;;;;0.20;0.20;;;;;;;;;;5084544;28;20286;-70
2023/02/01 14:25:33;;;;;;;0.10;0.10;;;;;;;;;;5074709;28;20311;-69
2023/02/01 14:27:59;;;;;;;0.20;0.20;;;;;;;;;;5084242;28;20194;-70
2023/02/01 14:30:26;;;;;;;0.20;0.20;;;;;;;;;;5074353;28;20246;-69
2023/02/01 14:32:52;;;;;;;0.20;0.20;;;;;;;;;;5083939;28;20279;-69
2023/02/01 14:35:20;;;;;;;0.20;0.20;;;;;;;;;;5074733;28;20532;-70
2023/02/01 14:37:47;;;;;;;0.20;0.20;;;;;;;;;;5084144;28;20392;-70
2023/02/01 14:40:20;;;;;;;0.20;0.20;;;;;;;;;;5074790;28;20223;-69
2023/02/01 14:42:48;;;;;;;0.10;0.10;;;;;;;;;;5083962;28;20517;-70
2023/02/01 14:45:32;;;;;;;0.30;0.30;;;;;;;;;;5074459;28;20280;-69
2023/02/01 14:48:14;;;;;;;0.20;0.20;;;;;;;;;;5084165;28;20400;-69
2023/02/01 14:50:40;;;;;;;0.20;0.20;;;;;;;;;;5072998;28;20306;-69
2023/02/01 14:53:23;;;;;;;0.30;0.30;;;;;;;;;;5084019;28;20428;-69
2023/02/01 14:55:53;;;;;;;1.07;0.60;;;;;;;;;;5073706;28;20236;-69
2023/02/01 14:58:23;;;;;;;0.10;0.10;;;;;;;;;;5083368;28;20234;-69
2023/02/01 15:00:52;;;;;;;0.40;0.40;;;;;;;;;;5073938;28;20245;-69
2023/02/01 15:03:33;;;;;;;0.20;0.20;;;;;;;;;;5083988;28;20205;-70
2023/02/01 15:06:00;;;;;;;0.10;0.10;;;;;;;;;;5073590;28;20251;-70
2023/02/01 15:08:28;;;;;;;0.20;0.20;;;;;;;;;;5083907;28;20249;-70
2023/02/01 15:10:57;;;;;;;0.20;0.20;;;;;;;;;;5073505;28;20561;-71
2023/02/01 15:13:25;;;;;;;0.20;0.20;;;;;;;;;;5083733;28;20369;-70
2023/02/01 15:16:01;;;;;;;0.23;0.23;;;;;;;;;;5073592;28;20251;-71
2023/02/01 15:18:28;;;;;;;0.10;0.10;;;;;;;;;;5083618;28;20235;-71
2023/02/01 15:20:57;;;;;;;8.20;7.70;;;;;;;;;;5073505;28;20549;-69
2023/02/01 15:23:24;;;;;;;0.50;0.33;;;;;;;;;;5083681;28;20225;-70